sensor_id;sensor_type;location;lat;lon;timestamp;pressure;altitude;pressure_sealevel;temperature;humidity
28079;BME280;15388;42.238;24.684;2022-07-29T00:00:34;99482.31;;;24.11;61.36
28079;BME280;15388;42.238;24.684;2022-07-29T00:03:00;99479.13;;;24.02;62.26
28079;BME280;15388;42.238;24.684;2022-07-29T00:05:25;99478.72;;;23.98;62.17
28079;BME280;15388;42.238;24.684;2022-07-29T00:07:50;99480.59;;;23.98;62.69
28079;BME280;15388;42.238;24.684;2022-07-29T00:10:15;99480.16;;;23.82;63.44
28079;BME280;15388;42.238;24.684;2022-07-29T00:12:41;99472.75;;;23.71;64.04
28079;BME280;15388;42.238;24.684;2022-07-29T00:15:06;99476.59;;;23.63;64.03
28079;BME280;15388;42.238;24.684;2022-07-29T00:17:32;99476.56;;;23.44;65.52
28079;BME280;15388;42.238;24.684;2022-07-29T00:19:58;99475.81;;;23.37;65.43
28079;BME280;15388;42.238;24.684;2022-07-29T00:22:24;99487.44;;;23.19;66.27
28079;BME280;15388;42.238;24.684;2022-07-29T00:24:49;99488.41;;;22.99;67.12
28079;BME280;15388;42.238;24.684;2022-07-29T00:27:15;99479.31;;;22.86;67.24
28079;BME280;15388;42.238;24.684;2022-07-29T00:29:40;99478.53;;;22.79;67.55
28079;BME280;15388;42.238;24.684;2022-07-29T00:32:05;99477.56;;;22.67;67.89
28079;BME280;15388;42.238;24.684;2022-07-29T00:34:31;99488.13;;;22.75;66.68
28079;BME280;15388;42.238;24.684;2022-07-29T00:37:14;99488.41;;;22.67;66.29
28079;BME280;15388;42.238;24.684;2022-07-29T00:39:40;99484.31;;;22.57;67.16
28079;BME280;15388;42.238;24.684;2022-07-29T00:42:05;99485.41;;;22.43;67.43
28079;BME280;15388;42.238;24.684;2022-07-29T00:44:32;99479.84;;;22.24;67.73
28079;BME280;15388;42.238;24.684;2022-07-29T00:47:00;99486.06;;;22.31;67.41
28079;BME280;15388;42.238;24.684;2022-07-29T00:49:25;99484.34;;;22.37;67.39
28079;BME280;15388;42.238;24.684;2022-07-29T00:51:51;99479.34;;;22.40;67.00
28079;BME280;15388;42.238;24.684;2022-07-29T00:54:16;99487.06;;;22.44;66.43
28079;BME280;15388;42.238;24.684;2022-07-29T00:56:42;99486.63;;;22.40;66.73
28079;BME280;15388;42.238;24.684;2022-07-29T00:59:07;99476.59;;;22.47;66.43
28079;BME280;15388;42.238;24.684;2022-07-29T01:01:32;99475.78;;;22.47;66.50
28079;BME280;15388;42.238;24.684;2022-07-29T01:03:58;99477.53;;;22.27;67.14
28079;BME280;15388;42.238;24.684;2022-07-29T01:06:23;99483.88;;;22.01;67.81
28079;BME280;15388;42.238;24.684;2022-07-29T01:08:49;99486.63;;;21.87;68.54
28079;BME280;15388;42.238;24.684;2022-07-29T01:11:16;99493.94;;;21.80;69.46
28079;BME280;15388;42.238;24.684;2022-07-29T01:13:42;99487.28;;;21.76;69.79
28079;BME280;15388;42.238;24.684;2022-07-29T01:18:55;99491.88;;;21.55;70.74
28079;BME280;15388;42.238;24.684;2022-07-29T01:26:47;99488.34;;;21.75;71.35
28079;BME280;15388;42.238;24.684;2022-07-29T01:34:08;99471.81;;;21.97;70.23
28079;BME280;15388;42.238;24.684;2022-07-29T01:36:47;99473.91;;;21.95;70.28
28079;BME280;15388;42.238;24.684;2022-07-29T01:39:18;99471.19;;;22.01;70.00
28079;BME280;15388;42.238;24.684;2022-07-29T01:41:50;99463.06;;;21.95;70.08
28079;BME280;15388;42.238;24.684;2022-07-29T01:44:22;99476.00;;;21.86;70.55
28079;BME280;15388;42.238;24.684;2022-07-29T01:46:50;99477.09;;;21.58;71.07
28079;BME280;15388;42.238;24.684;2022-07-29T01:49:18;99471.03;;;21.62;71.43
28079;BME280;15388;42.238;24.684;2022-07-29T01:56:35;99470.66;;;21.38;73.33
28079;BME280;15388;42.238;24.684;2022-07-29T01:59:03;99468.16;;;21.44;73.03
28079;BME280;15388;42.238;24.684;2022-07-29T02:01:29;99467.34;;;21.16;74.14
28079;BME280;15388;42.238;24.684;2022-07-29T02:03:56;99472.53;;;21.04;75.17
28079;BME280;15388;42.238;24.684;2022-07-29T02:06:22;99470.47;;;21.20;74.94
28079;BME280;15388;42.238;24.684;2022-07-29T02:08:47;99462.34;;;21.27;75.59
28079;BME280;15388;42.238;24.684;2022-07-29T02:11:13;99463.16;;;21.41;74.82
28079;BME280;15388;42.238;24.684;2022-07-29T02:13:39;99461.06;;;21.49;75.22
28079;BME280;15388;42.238;24.684;2022-07-29T02:16:05;99462.94;;;21.56;75.04
28079;BME280;15388;42.238;24.684;2022-07-29T02:18:32;99461.06;;;21.56;74.36
28079;BME280;15388;42.238;24.684;2022-07-29T02:20:58;99466.06;;;21.59;73.91
28079;BME280;15388;42.238;24.684;2022-07-29T02:23:24;99463.38;;;21.59;73.73
28079;BME280;15388;42.238;24.684;2022-07-29T02:25:51;99468.38;;;21.49;74.31
28079;BME280;15388;42.238;24.684;2022-07-29T02:28:17;99471.06;;;21.49;74.28
28079;BME280;15388;42.238;24.684;2022-07-29T02:30:44;99462.75;;;21.44;74.72
28079;BME280;15388;42.238;24.684;2022-07-29T02:33:12;99460.66;;;21.46;74.98
28079;BME280;15388;42.238;24.684;2022-07-29T02:38:03;99449.03;;;21.38;74.75
28079;BME280;15388;42.238;24.684;2022-07-29T02:40:47;99459.84;;;21.38;74.70
28079;BME280;15388;42.238;24.684;2022-07-29T02:43:13;99455.50;;;21.24;75.84
28079;BME280;15388;42.238;24.684;2022-07-29T02:45:39;99463.19;;;21.13;76.43
28079;BME280;15388;42.238;24.684;2022-07-29T02:48:10;99459.81;;;20.84;78.63
28079;BME280;15388;42.238;24.684;2022-07-29T02:50:39;99456.06;;;20.85;78.82
28079;BME280;15388;42.238;24.684;2022-07-29T02:53:09;99451.28;;;20.87;79.57
28079;BME280;15388;42.238;24.684;2022-07-29T02:55:43;99456.53;;;20.96;78.82
28079;BME280;15388;42.238;24.684;2022-07-29T03:00:37;99463.59;;;20.90;79.29
28079;BME280;15388;42.238;24.684;2022-07-29T03:03:03;99460.88;;;20.83;79.46
28079;BME280;15388;42.238;24.684;2022-07-29T03:05:29;99459.38;;;20.67;80.44
28079;BME280;15388;42.238;24.684;2022-07-29T03:07:57;99460.59;;;20.51;81.69
28079;BME280;15388;42.238;24.684;2022-07-29T03:10:25;99461.00;;;20.55;82.22
28079;BME280;15388;42.238;24.684;2022-07-29T03:12:51;99469.09;;;20.48;82.94
28079;BME280;15388;42.238;24.684;2022-07-29T03:15:16;99476.56;;;20.46;83.52
28079;BME280;15388;42.238;24.684;2022-07-29T03:17:42;99483.34;;;20.15;86.10
28079;BME280;15388;42.238;24.684;2022-07-29T03:20:08;99484.69;;;19.97;87.96
28079;BME280;15388;42.238;24.684;2022-07-29T03:22:38;99480.81;;;19.78;89.76
28079;BME280;15388;42.238;24.684;2022-07-29T03:25:08;99485.31;;;19.64;92.34
28079;BME280;15388;42.238;24.684;2022-07-29T03:27:34;99480.00;;;19.42;95.19
28079;BME280;15388;42.238;24.684;2022-07-29T03:29:59;99482.50;;;19.43;95.65
28079;BME280;15388;42.238;24.684;2022-07-29T03:32:24;99483.47;;;19.35;96.60
28079;BME280;15388;42.238;24.684;2022-07-29T03:34:50;99482.00;;;19.33;97.60
28079;BME280;15388;42.238;24.684;2022-07-29T03:37:15;99484.97;;;19.45;97.61
28079;BME280;15388;42.238;24.684;2022-07-29T03:39:40;99492.78;;;19.62;96.14
28079;BME280;15388;42.238;24.684;2022-07-29T03:42:06;99497.69;;;19.80;95.41
28079;BME280;15388;42.238;24.684;2022-07-29T03:44:33;99488.56;;;19.88;94.32
28079;BME280;15388;42.238;24.684;2022-07-29T03:46:59;99493.19;;;19.94;93.79
28079;BME280;15388;42.238;24.684;2022-07-29T03:49:26;99487.00;;;20.00;93.70
28079;BME280;15388;42.238;24.684;2022-07-29T03:51:52;99489.94;;;20.05;93.27
28079;BME280;15388;42.238;24.684;2022-07-29T03:54:18;99488.66;;;20.01;93.84
28079;BME280;15388;42.238;24.684;2022-07-29T03:56:43;99493.41;;;19.99;94.33
28079;BME280;15388;42.238;24.684;2022-07-29T03:59:12;99493.09;;;20.16;93.70
28079;BME280;15388;42.238;24.684;2022-07-29T04:01:38;99481.09;;;20.25;92.89
28079;BME280;15388;42.238;24.684;2022-07-29T04:04:04;99488.66;;;20.01;94.99
28079;BME280;15388;42.238;24.684;2022-07-29T04:06:37;99493.97;;;19.88;95.81
28079;BME280;15388;42.238;24.684;2022-07-29T04:09:02;99498.50;;;19.80;96.74
28079;BME280;15388;42.238;24.684;2022-07-29T04:11:27;99501.06;;;19.89;96.77
28079;BME280;15388;42.238;24.684;2022-07-29T04:13:53;99499.50;;;20.08;95.83
28079;BME280;15388;42.238;24.684;2022-07-29T04:16:18;99497.06;;;20.20;94.76
28079;BME280;15388;42.238;24.684;2022-07-29T04:18:43;99505.03;;;20.35;93.79
28079;BME280;15388;42.238;24.684;2022-07-29T04:21:08;99512.97;;;20.50;94.50
28079;BME280;15388;42.238;24.684;2022-07-29T04:23:34;99511.34;;;20.62;93.01
28079;BME280;15388;42.238;24.684;2022-07-29T04:25:59;99507.84;;;20.75;91.80
28079;BME280;15388;42.238;24.684;2022-07-29T04:28:26;99501.81;;;20.87;89.92
28079;BME280;15388;42.238;24.684;2022-07-29T04:30:51;99497.31;;;21.01;89.52
28079;BME280;15388;42.238;24.684;2022-07-29T04:33:16;99503.13;;;21.11;89.16
28079;BME280;15388;42.238;24.684;2022-07-29T04:35:42;99499.84;;;21.23;88.69
28079;BME280;15388;42.238;24.684;2022-07-29T04:38:07;99516.47;;;21.40;88.48
28079;BME280;15388;42.238;24.684;2022-07-29T04:40:33;99504.81;;;21.40;88.17
28079;BME280;15388;42.238;24.684;2022-07-29T04:42:59;99518.13;;;21.48;87.90
28079;BME280;15388;42.238;24.684;2022-07-29T04:45:24;99507.09;;;21.56;88.78
28079;BME280;15388;42.238;24.684;2022-07-29T04:47:49;99514.59;;;21.61;87.53
28079;BME280;15388;42.238;24.684;2022-07-29T04:50:15;99514.16;;;21.71;86.69
28079;BME280;15388;42.238;24.684;2022-07-29T04:52:40;99520.81;;;21.82;86.75
28079;BME280;15388;42.238;24.684;2022-07-29T04:55:06;99513.94;;;21.86;85.87
28079;BME280;15388;42.238;24.684;2022-07-29T04:57:31;99519.75;;;21.89;85.46
28079;BME280;15388;42.238;24.684;2022-07-29T04:59:56;99518.09;;;21.88;85.89
28079;BME280;15388;42.238;24.684;2022-07-29T05:02:22;99521.22;;;21.99;85.59
28079;BME280;15388;42.238;24.684;2022-07-29T05:04:47;99528.47;;;22.05;85.16
28079;BME280;15388;42.238;24.684;2022-07-29T05:07:12;99530.53;;;22.10;84.75
28079;BME280;15388;42.238;24.684;2022-07-29T05:09:38;99522.38;;;22.23;85.08
28079;BME280;15388;42.238;24.684;2022-07-29T05:12:03;99523.41;;;22.29;84.04
28079;BME280;15388;42.238;24.684;2022-07-29T05:14:28;99521.91;;;22.33;83.55
28079;BME280;15388;42.238;24.684;2022-07-29T05:16:54;99528.31;;;22.46;83.54
28079;BME280;15388;42.238;24.684;2022-07-29T05:19:21;99526.63;;;22.58;84.09
28079;BME280;15388;42.238;24.684;2022-07-29T05:21:47;99523.94;;;22.51;84.97
28079;BME280;15388;42.238;24.684;2022-07-29T05:24:12;99525.81;;;22.51;85.57
28079;BME280;15388;42.238;24.684;2022-07-29T05:26:38;99526.41;;;22.53;85.83
28079;BME280;15388;42.238;24.684;2022-07-29T05:29:03;99524.09;;;22.63;84.57
28079;BME280;15388;42.238;24.684;2022-07-29T05:31:28;99524.03;;;22.77;83.54
28079;BME280;15388;42.238;24.684;2022-07-29T05:33:54;99526.03;;;22.88;82.42
28079;BME280;15388;42.238;24.684;2022-07-29T05:36:19;99523.88;;;22.97;81.18
28079;BME280;15388;42.238;24.684;2022-07-29T05:38:44;99529.81;;;23.13;80.39
28079;BME280;15388;42.238;24.684;2022-07-29T05:41:10;99528.28;;;23.24;79.53
28079;BME280;15388;42.238;24.684;2022-07-29T05:43:35;99528.63;;;23.34;79.78
28079;BME280;15388;42.238;24.684;2022-07-29T05:46:00;99530.59;;;23.52;79.78
28079;BME280;15388;42.238;24.684;2022-07-29T05:48:26;99539.25;;;23.68;79.18
28079;BME280;15388;42.238;24.684;2022-07-29T05:50:51;99543.72;;;23.81;78.27
28079;BME280;15388;42.238;24.684;2022-07-29T05:53:16;99553.38;;;23.96;76.31
28079;BME280;15388;42.238;24.684;2022-07-29T05:55:42;99546.03;;;23.96;76.84
28079;BME280;15388;42.238;24.684;2022-07-29T05:58:07;99548.09;;;24.01;76.78
28079;BME280;15388;42.238;24.684;2022-07-29T06:00:32;99545.53;;;24.06;76.49
28079;BME280;15388;42.238;24.684;2022-07-29T06:02:58;99548.59;;;24.16;76.54
28079;BME280;15388;42.238;24.684;2022-07-29T06:05:23;99542.69;;;24.20;77.27
28079;BME280;15388;42.238;24.684;2022-07-29T06:07:48;99544.28;;;24.27;76.62
28079;BME280;15388;42.238;24.684;2022-07-29T06:10:13;99550.16;;;24.43;76.68
28079;BME280;15388;42.238;24.684;2022-07-29T06:12:39;99554.31;;;24.46;75.65
28079;BME280;15388;42.238;24.684;2022-07-29T06:15:04;99552.47;;;24.58;76.38
28079;BME280;15388;42.238;24.684;2022-07-29T06:17:30;99549.44;;;24.66;75.42
28079;BME280;15388;42.238;24.684;2022-07-29T06:19:55;99545.78;;;24.73;75.41
28079;BME280;15388;42.238;24.684;2022-07-29T06:22:20;99547.16;;;24.82;74.97
28079;BME280;15388;42.238;24.684;2022-07-29T06:24:45;99546.38;;;24.93;75.29
28079;BME280;15388;42.238;24.684;2022-07-29T06:27:11;99547.09;;;25.01;74.08
28079;BME280;15388;42.238;24.684;2022-07-29T06:29:36;99549.53;;;25.21;73.27
28079;BME280;15388;42.238;24.684;2022-07-29T06:32:02;99542.34;;;25.39;72.10
28079;BME280;15388;42.238;24.684;2022-07-29T06:34:27;99546.81;;;25.57;70.18
28079;BME280;15388;42.238;24.684;2022-07-29T06:36:53;99542.59;;;25.61;71.44
28079;BME280;15388;42.238;24.684;2022-07-29T06:39:18;99541.41;;;25.81;71.09
28079;BME280;15388;42.238;24.684;2022-07-29T06:41:46;99543.66;;;25.96;70.52
28079;BME280;15388;42.238;24.684;2022-07-29T06:44:11;99544.22;;;26.10;69.10
28079;BME280;15388;42.238;24.684;2022-07-29T06:46:36;99536.84;;;26.23;67.60
28079;BME280;15388;42.238;24.684;2022-07-29T06:49:02;99535.44;;;26.32;68.34
28079;BME280;15388;42.238;24.684;2022-07-29T06:51:27;99546.06;;;26.45;68.42
28079;BME280;15388;42.238;24.684;2022-07-29T06:53:52;99533.69;;;26.55;66.71
28079;BME280;15388;42.238;24.684;2022-07-29T06:56:18;99541.09;;;26.42;66.13
28079;BME280;15388;42.238;24.684;2022-07-29T06:58:43;99534.56;;;26.43;67.27
28079;BME280;15388;42.238;24.684;2022-07-29T07:01:08;99526.91;;;26.57;66.21
28079;BME280;15388;42.238;24.684;2022-07-29T07:03:34;99536.72;;;26.70;66.18
28079;BME280;15388;42.238;24.684;2022-07-29T07:05:59;99531.34;;;26.76;65.11
28079;BME280;15388;42.238;24.684;2022-07-29T07:08:24;99529.47;;;26.93;65.90
28079;BME280;15388;42.238;24.684;2022-07-29T07:10:50;99527.22;;;27.02;63.87
28079;BME280;15388;42.238;24.684;2022-07-29T07:13:16;99521.06;;;26.95;64.03
28079;BME280;15388;42.238;24.684;2022-07-29T07:15:42;99522.41;;;27.09;63.80
28079;BME280;15388;42.238;24.684;2022-07-29T07:18:07;99526.47;;;27.07;63.00
28079;BME280;15388;42.238;24.684;2022-07-29T07:20:33;99526.91;;;27.16;61.67
28079;BME280;15388;42.238;24.684;2022-07-29T07:22:58;99524.72;;;27.35;61.80
28079;BME280;15388;42.238;24.684;2022-07-29T07:25:24;99520.41;;;27.56;60.67
28079;BME280;15388;42.238;24.684;2022-07-29T07:27:49;99524.63;;;27.81;59.34
28079;BME280;15388;42.238;24.684;2022-07-29T07:30:14;99524.00;;;27.96;57.83
28079;BME280;15388;42.238;24.684;2022-07-29T07:32:39;99517.06;;;28.11;56.91
28079;BME280;15388;42.238;24.684;2022-07-29T07:35:05;99527.38;;;28.26;55.57
28079;BME280;15388;42.238;24.684;2022-07-29T07:37:31;99527.78;;;28.35;53.43
28079;BME280;15388;42.238;24.684;2022-07-29T07:39:57;99527.19;;;28.33;55.21
28079;BME280;15388;42.238;24.684;2022-07-29T07:42:23;99521.72;;;28.33;53.91
28079;BME280;15388;42.238;24.684;2022-07-29T07:44:48;99518.88;;;28.45;53.56
28079;BME280;15388;42.238;24.684;2022-07-29T07:47:14;99524.78;;;28.59;51.93
28079;BME280;15388;42.238;24.684;2022-07-29T07:49:40;99519.97;;;28.71;51.08
28079;BME280;15388;42.238;24.684;2022-07-29T07:52:05;99532.41;;;28.84;49.92
28079;BME280;15388;42.238;24.684;2022-07-29T07:54:30;99520.28;;;29.03;50.09
28079;BME280;15388;42.238;24.684;2022-07-29T07:56:56;99513.28;;;29.17;48.71
28079;BME280;15388;42.238;24.684;2022-07-29T07:59:21;99515.53;;;29.26;48.67
28079;BME280;15388;42.238;24.684;2022-07-29T08:01:46;99524.69;;;29.42;47.56
28079;BME280;15388;42.238;24.684;2022-07-29T08:04:11;99512.97;;;29.46;47.68
28079;BME280;15388;42.238;24.684;2022-07-29T08:06:37;99512.47;;;29.55;46.91
28079;BME280;15388;42.238;24.684;2022-07-29T08:09:03;99515.19;;;29.49;47.11
28079;BME280;15388;42.238;24.684;2022-07-29T08:11:28;99518.28;;;29.64;47.63
28079;BME280;15388;42.238;24.684;2022-07-29T08:13:53;99520.84;;;29.75;45.93
28079;BME280;15388;42.238;24.684;2022-07-29T08:16:19;99514.84;;;29.84;46.40
28079;BME280;15388;42.238;24.684;2022-07-29T08:18:44;99514.38;;;29.97;45.63
28079;BME280;15388;42.238;24.684;2022-07-29T08:21:10;99511.69;;;30.13;45.03
28079;BME280;15388;42.238;24.684;2022-07-29T08:23:35;99523.84;;;30.28;44.31
28079;BME280;15388;42.238;24.684;2022-07-29T08:26:13;99512.59;;;30.34;41.93
28079;BME280;15388;42.238;24.684;2022-07-29T08:28:39;99514.06;;;30.63;41.95
28079;BME280;15388;42.238;24.684;2022-07-29T08:31:04;99510.44;;;30.47;40.71
28079;BME280;15388;42.238;24.684;2022-07-29T08:33:30;99506.94;;;30.62;41.28
28079;BME280;15388;42.238;24.684;2022-07-29T08:35:55;99494.91;;;30.84;40.88
28079;BME280;15388;42.238;24.684;2022-07-29T08:38:20;99494.34;;;31.08;41.77
28079;BME280;15388;42.238;24.684;2022-07-29T08:40:46;99492.41;;;31.13;41.91
28079;BME280;15388;42.238;24.684;2022-07-29T08:43:11;99486.09;;;31.34;40.75
28079;BME280;15388;42.238;24.684;2022-07-29T08:45:43;99494.88;;;31.51;40.04
28079;BME280;15388;42.238;24.684;2022-07-29T08:48:10;99486.00;;;31.70;39.12
28079;BME280;15388;42.238;24.684;2022-07-29T08:50:36;99478.84;;;31.80;37.72
28079;BME280;15388;42.238;24.684;2022-07-29T08:53:02;99486.53;;;31.83;38.19
28079;BME280;15388;42.238;24.684;2022-07-29T08:55:28;99481.00;;;31.98;38.62
28079;BME280;15388;42.238;24.684;2022-07-29T08:57:53;99485.84;;;32.17;37.18
28079;BME280;15388;42.238;24.684;2022-07-29T09:00:20;99479.19;;;32.28;37.67
28079;BME280;15388;42.238;24.684;2022-07-29T09:02:47;99477.72;;;32.47;37.62
28079;BME280;15388;42.238;24.684;2022-07-29T09:05:16;99475.50;;;32.54;33.74
28079;BME280;15388;42.238;24.684;2022-07-29T09:07:42;99478.53;;;32.52;34.46
28079;BME280;15388;42.238;24.684;2022-07-29T09:10:08;99475.66;;;32.68;34.59
28079;BME280;15388;42.238;24.684;2022-07-29T09:12:34;99474.19;;;32.41;34.20
28079;BME280;15388;42.238;24.684;2022-07-29T09:14:59;99464.41;;;32.64;33.84
28079;BME280;15388;42.238;24.684;2022-07-29T09:17:39;99466.25;;;32.79;34.39
28079;BME280;15388;42.238;24.684;2022-07-29T09:20:12;99465.03;;;32.91;33.33
28079;BME280;15388;42.238;24.684;2022-07-29T09:22:37;99460.00;;;33.03;32.72
28079;BME280;15388;42.238;24.684;2022-07-29T09:25:03;99455.09;;;32.90;32.80
28079;BME280;15388;42.238;24.684;2022-07-29T09:27:28;99452.31;;;32.95;33.23
28079;BME280;15388;42.238;24.684;2022-07-29T09:30:00;99450.31;;;33.06;33.32
28079;BME280;15388;42.238;24.684;2022-07-29T09:32:26;99448.78;;;33.24;32.31
28079;BME280;15388;42.238;24.684;2022-07-29T09:35:13;99446.31;;;33.23;32.42
28079;BME280;15388;42.238;24.684;2022-07-29T09:37:37;99441.16;;;33.16;30.79
28079;BME280;15388;42.238;24.684;2022-07-29T09:40:10;99443.25;;;33.24;30.22
28079;BME280;15388;42.238;24.684;2022-07-29T09:42:36;99440.88;;;33.42;31.35
28079;BME280;15388;42.238;24.684;2022-07-29T09:45:01;99438.22;;;33.56;31.69
28079;BME280;15388;42.238;24.684;2022-07-29T09:47:40;99436.66;;;33.74;30.69
28079;BME280;15388;42.238;24.684;2022-07-29T09:50:06;99442.13;;;33.79;29.66
28079;BME280;15388;42.238;24.684;2022-07-29T09:52:32;99442.19;;;33.93;31.15
28079;BME280;15388;42.238;24.684;2022-07-29T09:55:09;99435.75;;;34.03;30.29
28079;BME280;15388;42.238;24.684;2022-07-29T09:57:35;99433.50;;;34.05;30.05
28079;BME280;15388;42.238;24.684;2022-07-29T10:00:05;99426.13;;;34.20;30.06
28079;BME280;15388;42.238;24.684;2022-07-29T10:02:32;99428.91;;;34.39;30.04
28079;BME280;15388;42.238;24.684;2022-07-29T10:04:57;99427.41;;;34.47;29.32
28079;BME280;15388;42.238;24.684;2022-07-29T10:07:23;99431.41;;;34.55;29.03
28079;BME280;15388;42.238;24.684;2022-07-29T10:09:52;99432.84;;;34.52;28.87
28079;BME280;15388;42.238;24.684;2022-07-29T10:12:19;99424.97;;;34.60;29.40
28079;BME280;15388;42.238;24.684;2022-07-29T10:14:44;99427.31;;;34.52;29.20
28079;BME280;15388;42.238;24.684;2022-07-29T10:17:10;99424.03;;;34.69;28.52
28079;BME280;15388;42.238;24.684;2022-07-29T10:19:36;99422.88;;;34.90;28.75
28079;BME280;15388;42.238;24.684;2022-07-29T10:22:03;99424.69;;;34.80;27.28
28079;BME280;15388;42.238;24.684;2022-07-29T10:24:29;99406.28;;;34.90;27.25
28079;BME280;15388;42.238;24.684;2022-07-29T10:26:55;99408.34;;;34.98;27.80
28079;BME280;15388;42.238;24.684;2022-07-29T10:29:21;99413.53;;;35.19;28.17
28079;BME280;15388;42.238;24.684;2022-07-29T10:37:20;99404.00;;;35.25;27.37
28079;BME280;15388;42.238;24.684;2022-07-29T10:42:53;99391.19;;;35.57;25.92
28079;BME280;15388;42.238;24.684;2022-07-29T10:45:19;99391.59;;;35.37;25.93
28079;BME280;15388;42.238;24.684;2022-07-29T10:47:44;99386.28;;;35.40;28.15
28079;BME280;15388;42.238;24.684;2022-07-29T10:50:09;99383.41;;;35.60;27.46
28079;BME280;15388;42.238;24.684;2022-07-29T10:55:36;99366.75;;;36.02;27.53
28079;BME280;15388;42.238;24.684;2022-07-29T10:58:14;99371.00;;;36.22;27.27
28079;BME280;15388;42.238;24.684;2022-07-29T11:00:40;99371.75;;;36.37;26.04
28079;BME280;15388;42.238;24.684;2022-07-29T11:03:06;99368.47;;;36.35;27.01
28079;BME280;15388;42.238;24.684;2022-07-29T11:05:50;99372.38;;;36.33;26.65
28079;BME280;15388;42.238;24.684;2022-07-29T11:08:16;99364.97;;;36.43;26.50
28079;BME280;15388;42.238;24.684;2022-07-29T11:16:09;99358.53;;;36.79;26.05
28079;BME280;15388;42.238;24.684;2022-07-29T11:18:34;99342.38;;;36.81;25.64
28079;BME280;15388;42.238;24.684;2022-07-29T11:21:00;99345.66;;;36.83;25.66
28079;BME280;15388;42.238;24.684;2022-07-29T11:23:26;99336.72;;;36.64;25.79
28079;BME280;15388;42.238;24.684;2022-07-29T11:31:41;99318.56;;;36.80;25.23
28079;BME280;15388;42.238;24.684;2022-07-29T11:39:28;99328.19;;;37.15;26.41
28079;BME280;15388;42.238;24.684;2022-07-29T11:41:57;99324.78;;;37.27;26.12
28079;BME280;15388;42.238;24.684;2022-07-29T11:47:23;99319.63;;;37.60;26.37
28079;BME280;15388;42.238;24.684;2022-07-29T11:49:49;99310.38;;;37.74;26.31
28079;BME280;15388;42.238;24.684;2022-07-29T11:52:16;99310.72;;;37.81;26.11
28079;BME280;15388;42.238;24.684;2022-07-29T11:54:42;99305.63;;;37.83;26.30
28079;BME280;15388;42.238;24.684;2022-07-29T11:57:07;99304.19;;;37.95;25.97
28079;BME280;15388;42.238;24.684;2022-07-29T11:59:43;99304.81;;;38.01;25.90
28079;BME280;15388;42.238;24.684;2022-07-29T12:02:08;99299.09;;;38.06;25.29
28079;BME280;15388;42.238;24.684;2022-07-29T12:04:35;99297.31;;;38.19;25.11
28079;BME280;15388;42.238;24.684;2022-07-29T12:07:12;99290.56;;;38.29;25.45
28079;BME280;15388;42.238;24.684;2022-07-29T12:09:37;99296.84;;;38.17;25.42
28079;BME280;15388;42.238;24.684;2022-07-29T12:12:03;99303.81;;;38.23;26.09
28079;BME280;15388;42.238;24.684;2022-07-29T12:14:29;99298.13;;;38.10;25.57
28079;BME280;15388;42.238;24.684;2022-07-29T12:16:55;99302.69;;;37.89;26.00
28079;BME280;15388;42.238;24.684;2022-07-29T12:19:21;99298.44;;;37.91;26.22
28079;BME280;15388;42.238;24.684;2022-07-29T12:21:47;99298.63;;;37.95;26.07
28079;BME280;15388;42.238;24.684;2022-07-29T12:24:13;99298.44;;;38.00;26.17
28079;BME280;15388;42.238;24.684;2022-07-29T12:26:55;99293.22;;;37.98;26.25
28079;BME280;15388;42.238;24.684;2022-07-29T12:29:21;99295.34;;;38.10;25.62
28079;BME280;15388;42.238;24.684;2022-07-29T12:31:46;99278.03;;;38.14;25.25
28079;BME280;15388;42.238;24.684;2022-07-29T12:34:18;99279.97;;;38.22;25.58
28079;BME280;15388;42.238;24.684;2022-07-29T12:36:44;99283.25;;;38.06;26.21
28079;BME280;15388;42.238;24.684;2022-07-29T12:39:10;99278.03;;;38.22;25.94
28079;BME280;15388;42.238;24.684;2022-07-29T12:41:35;99274.75;;;38.12;25.62
28079;BME280;15388;42.238;24.684;2022-07-29T12:44:01;99276.75;;;38.20;25.81
28079;BME280;15388;42.238;24.684;2022-07-29T12:46:26;99268.41;;;38.20;25.71
28079;BME280;15388;42.238;24.684;2022-07-29T12:48:52;99256.56;;;38.41;25.61
28079;BME280;15388;42.238;24.684;2022-07-29T12:51:35;99253.59;;;38.55;25.43
28079;BME280;15388;42.238;24.684;2022-07-29T12:56:32;99251.44;;;38.99;25.22
28079;BME280;15388;42.238;24.684;2022-07-29T12:58:57;99251.69;;;39.16;25.24
28079;BME280;15388;42.238;24.684;2022-07-29T13:01:23;99243.91;;;39.30;24.76
28079;BME280;15388;42.238;24.684;2022-07-29T13:03:52;99247.00;;;39.29;25.18
28079;BME280;15388;42.238;24.684;2022-07-29T13:08:59;99230.47;;;39.32;25.19
28079;BME280;15388;42.238;24.684;2022-07-29T13:11:28;99228.69;;;39.49;24.45
28079;BME280;15388;42.238;24.684;2022-07-29T13:13:53;99232.38;;;39.62;23.98
28079;BME280;15388;42.238;24.684;2022-07-29T13:16:18;99225.31;;;39.65;24.46
28079;BME280;15388;42.238;24.684;2022-07-29T13:18:44;99224.75;;;39.71;24.62
28079;BME280;15388;42.238;24.684;2022-07-29T13:21:10;99220.31;;;39.92;24.10
28079;BME280;15388;42.238;24.684;2022-07-29T13:23:35;99223.69;;;39.64;24.34
28079;BME280;15388;42.238;24.684;2022-07-29T13:26:07;99218.94;;;39.64;24.17
28079;BME280;15388;42.238;24.684;2022-07-29T13:28:33;99215.56;;;39.58;24.05
28079;BME280;15388;42.238;24.684;2022-07-29T13:30:59;99215.41;;;39.76;23.96
28079;BME280;15388;42.238;24.684;2022-07-29T13:33:24;99204.81;;;39.48;23.99
28079;BME280;15388;42.238;24.684;2022-07-29T13:35:49;99202.63;;;39.54;24.39
28079;BME280;15388;42.238;24.684;2022-07-29T13:38:15;99200.97;;;39.61;24.35
28079;BME280;15388;42.238;24.684;2022-07-29T13:40:40;99202.59;;;39.75;24.34
28079;BME280;15388;42.238;24.684;2022-07-29T13:43:08;99194.75;;;39.90;24.52
28079;BME280;15388;42.238;24.684;2022-07-29T13:45:33;99189.03;;;40.07;23.96